createdAt,value
2018-09-18T00:00:27.986Z,1013.42
2018-09-18T00:02:20.775Z,1013.40
2018-09-18T00:03:20.699Z,1013.39
2018-09-18T00:05:13.484Z,1013.36
2018-09-18T00:06:13.420Z,1013.33
2018-09-18T00:08:06.220Z,1013.34
2018-09-18T00:09:06.147Z,1013.31
2018-09-18T00:10:58.919Z,1013.27
2018-09-18T00:11:58.859Z,1013.30
2018-09-18T00:13:50.738Z,1013.25
2018-09-18T00:14:50.652Z,1013.22
2018-09-18T00:16:43.424Z,1013.25
2018-09-18T00:17:43.382Z,1013.24
2018-09-18T00:19:36.137Z,1013.25
2018-09-18T00:20:36.058Z,1013.23
2018-09-18T00:22:28.836Z,1013.28
2018-09-18T00:23:28.762Z,1013.23
2018-09-18T00:25:21.531Z,1013.24
2018-09-18T00:26:21.460Z,1013.26
2018-09-18T00:28:14.247Z,1013.23
2018-09-18T00:29:14.169Z,1013.21
2018-09-18T00:31:06.934Z,1013.19
2018-09-18T00:32:06.876Z,1013.16
2018-09-18T00:33:59.663Z,1013.20
2018-09-18T00:34:59.572Z,1013.18
2018-09-18T00:36:52.346Z,1013.18
2018-09-18T00:37:52.273Z,1013.10
2018-09-18T00:39:45.056Z,1013.11
2018-09-18T00:40:44.975Z,1013.10
2018-09-18T00:42:37.793Z,1013.08
2018-09-18T00:43:37.701Z,1013.07
2018-09-18T00:45:30.480Z,1013.03
2018-09-18T00:46:30.413Z,1013.07
2018-09-18T00:48:23.189Z,1013.10
2018-09-18T00:49:23.109Z,1013.06
2018-09-18T00:51:15.890Z,1013.08
2018-09-18T00:52:15.826Z,1013.04
2018-09-18T00:54:08.614Z,1013.00
2018-09-18T00:55:08.529Z,1012.99
2018-09-18T00:57:01.315Z,1013.00
2018-09-18T00:58:01.254Z,1012.96
2018-09-18T00:59:54.044Z,1012.97
2018-09-18T01:00:53.961Z,1012.96
2018-09-18T01:02:46.726Z,1012.94
2018-09-18T01:03:46.660Z,1012.96
2018-09-18T01:05:39.452Z,1012.92
2018-09-18T01:06:39.389Z,1012.90
2018-09-18T01:08:32.195Z,1012.90
2018-09-18T01:09:32.095Z,1012.88
2018-09-18T01:11:24.871Z,1012.88
2018-09-18T01:12:24.807Z,1012.85
2018-09-18T01:14:17.615Z,1012.84
2018-09-18T01:15:17.520Z,1012.85
2018-09-18T01:17:10.323Z,1012.86
2018-09-18T01:18:10.242Z,1012.86
2018-09-18T01:20:03.046Z,1012.89
2018-09-18T01:21:02.965Z,1012.87
2018-09-18T01:22:55.727Z,1012.83
2018-09-18T01:23:55.655Z,1012.81
2018-09-18T01:25:48.440Z,1012.83
2018-09-18T01:26:48.365Z,1012.82
2018-09-18T01:28:41.164Z,1012.79
2018-09-18T01:29:41.073Z,1012.82
2018-09-18T01:31:33.864Z,1012.78
2018-09-18T01:32:33.792Z,1012.76
2018-09-18T01:34:26.572Z,1012.80
2018-09-18T01:35:26.487Z,1012.77
2018-09-18T01:37:19.261Z,1012.77
2018-09-18T01:38:19.197Z,1012.81
2018-09-18T01:40:11.967Z,1012.78
2018-09-18T01:41:11.894Z,1012.75
2018-09-18T01:43:04.654Z,1012.77
2018-09-18T01:44:04.583Z,1012.77
2018-09-18T01:45:57.353Z,1012.75
2018-09-18T01:46:57.284Z,1012.77
2018-09-18T01:48:50.064Z,1012.77
2018-09-18T01:49:49.986Z,1012.79
2018-09-18T01:51:42.745Z,1012.75
2018-09-18T01:52:42.687Z,1012.73
2018-09-18T01:54:35.458Z,1012.73
2018-09-18T01:55:35.377Z,1012.69
2018-09-18T01:57:28.157Z,1012.72
2018-09-18T01:58:28.093Z,1012.72
2018-09-18T02:00:20.877Z,1012.72
2018-09-18T02:01:20.787Z,1012.70
2018-09-18T02:03:13.556Z,1012.69
2018-09-18T02:04:13.490Z,1012.71
2018-09-18T02:06:06.270Z,1012.66
2018-09-18T02:07:06.200Z,1012.71
2018-09-18T02:08:59.004Z,1012.70
2018-09-18T02:09:58.897Z,1012.70
2018-09-18T02:11:51.718Z,1012.71
2018-09-18T02:12:51.639Z,1012.71
2018-09-18T02:14:44.457Z,1012.72
2018-09-18T02:15:44.399Z,1012.68
2018-09-18T02:17:37.179Z,1012.71
2018-09-18T02:18:37.102Z,1012.69
2018-09-18T02:20:29.878Z,1012.70
2018-09-18T02:21:29.816Z,1012.71
2018-09-18T02:23:22.592Z,1012.72
2018-09-18T02:24:22.533Z,1012.73
2018-09-18T02:26:15.305Z,1012.72
2018-09-18T02:27:15.227Z,1012.72
2018-09-18T02:29:08.039Z,1012.73
2018-09-18T02:30:07.949Z,1012.73
2018-09-18T02:32:00.726Z,1012.70
2018-09-18T02:33:00.667Z,1012.72
2018-09-18T02:34:53.451Z,1012.73
2018-09-18T02:35:53.370Z,1012.75
2018-09-18T02:37:45.279Z,1012.72
2018-09-18T02:38:45.215Z,1012.68
2018-09-18T02:40:37.977Z,1012.71
2018-09-18T02:41:37.914Z,1012.68
2018-09-18T02:43:30.679Z,1012.69
2018-09-18T02:44:30.614Z,1012.66
2018-09-18T02:46:23.383Z,1012.67
2018-09-18T02:47:23.311Z,1012.63
2018-09-18T02:49:16.096Z,1012.63
2018-09-18T02:50:16.006Z,1012.62
2018-09-18T02:52:08.817Z,1012.58
2018-09-18T02:53:08.760Z,1012.61
2018-09-18T02:55:01.529Z,1012.58
2018-09-18T02:56:01.453Z,1012.57
2018-09-18T02:57:54.238Z,1012.59
2018-09-18T02:58:54.157Z,1012.55
2018-09-18T03:00:46.017Z,1012.61
2018-09-18T03:01:45.943Z,1012.56
2018-09-18T03:03:38.702Z,1012.60
2018-09-18T03:04:38.634Z,1012.57
2018-09-18T03:06:31.409Z,1012.57
2018-09-18T03:07:31.328Z,1012.53
2018-09-18T03:09:24.133Z,1012.53
2018-09-18T03:10:24.028Z,1012.55
2018-09-18T03:12:16.791Z,1012.56
2018-09-18T03:13:16.747Z,1012.58
2018-09-18T03:15:09.651Z,1012.58
2018-09-18T03:16:09.606Z,1012.54
2018-09-18T03:18:02.365Z,1012.50
2018-09-18T03:19:02.338Z,1012.53
2018-09-18T03:20:55.396Z,1012.48
2018-09-18T03:21:55.285Z,1012.49
2018-09-18T03:23:48.132Z,1012.47
2018-09-18T03:24:48.063Z,1012.44
2018-09-18T03:26:40.963Z,1012.44
2018-09-18T03:27:40.942Z,1012.45
2018-09-18T03:29:33.807Z,1012.47
2018-09-18T03:30:33.691Z,1012.41
2018-09-18T03:32:26.596Z,1012.43
2018-09-18T03:33:26.538Z,1012.39
2018-09-18T03:35:19.432Z,1012.37
2018-09-18T03:36:19.469Z,1012.38
2018-09-18T03:38:12.190Z,1012.36
2018-09-18T03:39:12.126Z,1012.36
2018-09-18T03:41:05.047Z,1012.35
2018-09-18T03:42:05.059Z,1012.33
2018-09-18T03:43:57.871Z,1012.34
2018-09-18T03:44:57.765Z,1012.32
2018-09-18T03:46:50.721Z,1012.35
2018-09-18T03:47:50.646Z,1012.32
2018-09-18T03:49:43.677Z,1012.33
2018-09-18T03:50:43.505Z,1012.33
2018-09-18T03:52:36.273Z,1012.34
2018-09-18T03:53:36.214Z,1012.34
2018-09-18T03:55:29.065Z,1012.34
2018-09-18T03:56:29.092Z,1012.33
2018-09-18T03:58:21.807Z,1012.32
2018-09-18T03:59:21.814Z,1012.35
2018-09-18T04:01:14.651Z,1012.40
2018-09-18T04:02:14.492Z,1012.41
2018-09-18T04:04:07.269Z,1012.38
2018-09-18T04:05:07.198Z,1012.36
2018-09-18T04:06:59.991Z,1012.37
2018-09-18T04:07:59.920Z,1012.37
2018-09-18T04:09:52.687Z,1012.36
2018-09-18T04:10:52.621Z,1012.35
2018-09-18T04:12:45.371Z,1012.37
2018-09-18T04:13:45.308Z,1012.38
2018-09-18T04:15:38.088Z,1012.41
2018-09-18T04:16:38.011Z,1012.42
2018-09-18T04:18:30.776Z,1012.42
2018-09-18T04:19:30.710Z,1012.42
2018-09-18T04:21:23.507Z,1012.43
2018-09-18T04:22:23.406Z,1012.43
2018-09-18T04:24:16.237Z,1012.42
2018-09-18T04:25:16.160Z,1012.44
2018-09-18T04:27:08.970Z,1012.46
2018-09-18T04:28:08.856Z,1012.45
2018-09-18T04:30:01.682Z,1012.42
2018-09-18T04:31:01.610Z,1012.40
2018-09-18T04:32:54.383Z,1012.43
2018-09-18T04:33:54.315Z,1012.39
2018-09-18T04:35:47.085Z,1012.40
2018-09-18T04:36:47.021Z,1012.37
2018-09-18T04:38:39.818Z,1012.37
2018-09-18T04:39:39.753Z,1012.35
2018-09-18T04:41:32.546Z,1012.34
2018-09-18T04:42:32.459Z,1012.31
2018-09-18T04:44:25.226Z,1012.32
2018-09-18T04:45:25.156Z,1012.29
2018-09-18T04:47:17.957Z,1012.30
2018-09-18T04:48:17.872Z,1012.30
2018-09-18T04:50:10.662Z,1012.25
2018-09-18T04:51:10.583Z,1012.28
2018-09-18T04:53:03.349Z,1012.28
2018-09-18T04:54:03.282Z,1012.31
2018-09-18T04:55:56.098Z,1012.31
2018-09-18T04:56:55.994Z,1012.32
2018-09-18T04:58:48.749Z,1012.38
2018-09-18T04:59:48.693Z,1012.35
2018-09-18T05:01:41.471Z,1012.36
2018-09-18T05:02:41.372Z,1012.38
2018-09-18T05:04:34.150Z,1012.33
2018-09-18T05:05:34.105Z,1012.36
2018-09-18T05:07:26.869Z,1012.36
2018-09-18T05:08:26.818Z,1012.42
2018-09-18T05:10:19.614Z,1012.36
2018-09-18T05:11:19.498Z,1012.36
2018-09-18T05:13:12.310Z,1012.37
2018-09-18T05:14:12.234Z,1012.38
2018-09-18T05:16:05.033Z,1012.41
2018-09-18T05:17:04.934Z,1012.45
2018-09-18T05:18:57.694Z,1012.43
2018-09-18T05:19:57.638Z,1012.44
2018-09-18T05:21:50.415Z,1012.48
2018-09-18T05:22:50.329Z,1012.46
2018-09-18T05:24:43.119Z,1012.49
2018-09-18T05:25:43.077Z,1012.50
2018-09-18T05:27:35.834Z,1012.55
2018-09-18T05:28:35.756Z,1012.54
2018-09-18T05:30:28.530Z,1012.51
2018-09-18T05:31:28.463Z,1012.49
2018-09-18T05:33:21.261Z,1012.53
2018-09-18T05:34:21.185Z,1012.49
2018-09-18T05:36:13.968Z,1012.53
2018-09-18T05:37:13.883Z,1012.56
2018-09-18T05:39:06.657Z,1012.52
2018-09-18T05:40:06.589Z,1012.53
2018-09-18T05:41:59.432Z,1012.59
2018-09-18T05:42:59.301Z,1012.55
2018-09-18T05:44:52.073Z,1012.57
2018-09-18T05:45:52.014Z,1012.52
2018-09-18T05:47:44.807Z,1012.53
2018-09-18T05:48:44.732Z,1012.52
2018-09-18T05:50:37.518Z,1012.52
2018-09-18T05:51:37.443Z,1012.51
2018-09-18T05:53:30.237Z,1012.54
2018-09-18T05:54:30.165Z,1012.55
2018-09-18T05:56:22.940Z,1012.51
2018-09-18T05:57:22.902Z,1012.53
2018-09-18T05:59:15.647Z,1012.54
2018-09-18T06:00:15.579Z,1012.49
2018-09-18T06:02:07.457Z,1012.47
2018-09-18T06:03:07.332Z,1012.49
2018-09-18T06:05:00.117Z,1012.49
2018-09-18T06:06:00.049Z,1012.49
2018-09-18T06:07:52.827Z,1012.45
2018-09-18T06:08:52.762Z,1012.42
2018-09-18T06:10:45.519Z,1012.45
2018-09-18T06:11:45.456Z,1012.47
2018-09-18T06:13:38.290Z,1012.45
2018-09-18T06:14:38.212Z,1012.45
2018-09-18T06:16:30.999Z,1012.47
2018-09-18T06:17:30.930Z,1012.47
2018-09-18T06:19:23.696Z,1012.47
2018-09-18T06:20:23.665Z,1012.47
2018-09-18T06:22:16.474Z,1012.47
2018-09-18T06:23:16.381Z,1012.49
2018-09-18T06:25:09.147Z,1012.44
2018-09-18T06:26:09.084Z,1012.46
2018-09-18T06:28:01.863Z,1012.48
2018-09-18T06:29:01.778Z,1012.45
2018-09-18T06:30:54.616Z,1012.53
2018-09-18T06:31:54.531Z,1012.54
2018-09-18T06:33:47.330Z,1012.51
2018-09-18T06:34:47.258Z,1012.57
2018-09-18T06:36:40.060Z,1012.58
2018-09-18T06:37:39.978Z,1012.58
2018-09-18T06:39:32.767Z,1012.58
2018-09-18T06:40:32.710Z,1012.65
2018-09-18T06:42:25.560Z,1012.74
2018-09-18T06:43:25.432Z,1012.73
2018-09-18T06:45:18.186Z,1012.77
2018-09-18T06:46:18.120Z,1012.84
2018-09-18T06:48:10.935Z,1012.86
2018-09-18T06:49:10.857Z,1012.92
2018-09-18T06:51:03.621Z,1012.90
2018-09-18T06:52:03.561Z,1012.92
2018-09-18T06:53:56.381Z,1012.92
2018-09-18T06:54:56.322Z,1012.97
2018-09-18T06:56:49.115Z,1013.08
2018-09-18T06:57:49.036Z,1013.09
2018-09-18T06:59:41.817Z,1013.08
2018-09-18T07:00:41.758Z,1013.17
2018-09-18T07:02:34.582Z,1013.09
2018-09-18T07:03:34.488Z,1013.09
2018-09-18T07:05:27.374Z,1013.07
2018-09-18T07:06:27.279Z,1013.06
2018-09-18T07:08:20.122Z,1013.07
2018-09-18T07:09:20.039Z,1013.08
2018-09-18T07:11:12.819Z,1012.93
2018-09-18T07:12:12.765Z,1012.87
2018-09-18T07:14:05.585Z,1012.81
2018-09-18T07:15:05.515Z,1012.88
2018-09-18T07:16:58.346Z,1012.95
2018-09-18T07:17:58.305Z,1012.84
2018-09-18T07:19:51.077Z,1012.87
2018-09-18T07:20:50.997Z,1013.00
2018-09-18T07:22:43.838Z,1013.01
2018-09-18T07:23:43.771Z,1013.05
2018-09-18T07:25:36.522Z,1013.09
2018-09-18T07:26:36.472Z,1013.14
2018-09-18T07:28:29.276Z,1013.17
2018-09-18T07:29:29.213Z,1013.17
2018-09-18T07:31:22.026Z,1013.25
2018-09-18T07:32:21.938Z,1013.23
2018-09-18T07:34:14.754Z,1013.26
2018-09-18T07:35:14.709Z,1013.22
2018-09-18T07:37:07.494Z,1013.16
2018-09-18T07:38:07.427Z,1013.17
2018-09-18T07:40:00.251Z,1013.08
2018-09-18T07:41:00.210Z,1013.06
2018-09-18T07:42:52.986Z,1013.01
2018-09-18T07:43:52.918Z,1012.98
2018-09-18T07:45:45.717Z,1013.09
2018-09-18T07:46:45.655Z,1013.05
2018-09-18T07:48:38.460Z,1013.15
2018-09-18T07:49:38.373Z,1013.22
2018-09-18T07:51:31.166Z,1013.15
2018-09-18T07:52:31.109Z,1013.16
2018-09-18T07:54:23.931Z,1013.05
2018-09-18T07:55:23.854Z,1013.03
2018-09-18T07:57:16.645Z,1013.13
2018-09-18T07:58:16.583Z,1013.12
2018-09-18T08:00:09.473Z,1013.19
2018-09-18T08:01:09.424Z,1013.23
2018-09-18T08:03:02.189Z,1013.08
2018-09-18T08:04:02.068Z,1013.05
2018-09-18T08:06:20.333Z,1013.12
2018-09-18T08:07:20.281Z,1013.08
2018-09-18T08:09:13.064Z,1013.18
2018-09-18T08:10:12.998Z,1013.19
2018-09-18T08:12:05.778Z,1013.23
2018-09-18T08:13:05.718Z,1013.28
2018-09-18T08:14:58.514Z,1013.25
2018-09-18T08:15:58.446Z,1013.25
2018-09-18T08:17:51.241Z,1013.20
2018-09-18T08:18:51.323Z,1013.19
2018-09-18T08:20:43.967Z,1013.26
2018-09-18T08:21:43.896Z,1013.24
2018-09-18T08:23:36.690Z,1013.25
2018-09-18T08:24:36.643Z,1013.24
2018-09-18T08:26:29.419Z,1013.25
2018-09-18T08:27:29.366Z,1013.23
2018-09-18T08:29:22.172Z,1013.21
2018-09-18T08:30:22.110Z,1013.21
2018-09-18T08:32:14.903Z,1013.15
2018-09-18T08:33:14.847Z,1013.04
2018-09-18T08:35:07.715Z,1013.09
2018-09-18T08:36:07.602Z,1013.10
2018-09-18T08:38:00.424Z,1013.03
2018-09-18T08:39:00.333Z,1013.02
2018-09-18T08:40:53.141Z,1012.97
2018-09-18T08:41:53.078Z,1012.88
2018-09-18T08:43:45.898Z,1012.83
2018-09-18T08:44:45.835Z,1012.85
2018-09-18T08:46:38.599Z,1012.82
2018-09-18T08:47:38.553Z,1012.75
2018-09-18T08:49:31.422Z,1012.64
2018-09-18T08:50:31.363Z,1012.73
2018-09-18T08:52:24.132Z,1012.66
2018-09-18T08:53:24.064Z,1012.66
2018-09-18T08:55:16.901Z,1012.67
2018-09-18T08:56:16.806Z,1012.71
2018-09-18T08:58:08.799Z,1012.68
2018-09-18T08:59:08.732Z,1012.71
2018-09-18T09:01:00.710Z,1012.68
2018-09-18T09:02:00.622Z,1012.69
2018-09-18T09:03:53.446Z,1012.68
2018-09-18T09:04:53.368Z,1012.65
2018-09-18T09:06:46.219Z,1012.67
2018-09-18T09:07:46.194Z,1012.62
2018-09-18T09:09:38.983Z,1012.60
2018-09-18T09:10:38.853Z,1012.59
2018-09-18T09:12:31.648Z,1012.57
2018-09-18T09:13:31.636Z,1012.54
2018-09-18T09:15:24.421Z,1012.55
2018-09-18T09:16:24.342Z,1012.50
2018-09-18T09:18:17.259Z,1012.47
2018-09-18T09:19:17.079Z,1012.44
2018-09-18T09:21:09.959Z,1012.42
2018-09-18T09:22:09.882Z,1012.38
2018-09-18T09:24:02.604Z,1012.40
2018-09-18T09:25:02.557Z,1012.38
2018-09-18T09:26:55.413Z,1012.38
2018-09-18T09:27:55.337Z,1012.36
2018-09-18T09:29:48.092Z,1012.35
2018-09-18T09:30:48.042Z,1012.32
2018-09-18T09:32:40.852Z,1012.29
2018-09-18T09:33:40.786Z,1012.28
2018-09-18T09:35:33.621Z,1012.28
2018-09-18T09:36:33.559Z,1012.25
2018-09-18T09:38:26.355Z,1012.23
2018-09-18T09:39:26.283Z,1012.25
2018-09-18T09:41:19.090Z,1012.21
2018-09-18T09:42:19.020Z,1012.18
2018-09-18T09:44:11.828Z,1012.17
2018-09-18T09:45:11.863Z,1012.16
2018-09-18T09:47:04.573Z,1012.15
2018-09-18T09:48:04.510Z,1012.14
2018-09-18T09:49:57.300Z,1012.12
2018-09-18T09:50:57.258Z,1012.14
2018-09-18T09:52:50.045Z,1012.08
2018-09-18T09:53:49.987Z,1012.12
2018-09-18T09:55:42.767Z,1012.05
2018-09-18T09:56:42.729Z,1012.07
2018-09-18T09:58:35.518Z,1012.04
2018-09-18T09:59:35.456Z,1012.06
2018-09-18T10:01:28.266Z,1012.01
2018-09-18T10:02:28.203Z,1011.99
2018-09-18T10:04:20.991Z,1011.94
2018-09-18T10:05:20.933Z,1011.86
2018-09-18T10:07:13.749Z,1011.93
2018-09-18T10:08:13.677Z,1011.85
2018-09-18T10:10:06.461Z,1011.83
2018-09-18T10:11:06.472Z,1011.86
2018-09-18T10:12:59.204Z,1011.86
2018-09-18T10:13:59.138Z,1011.89
2018-09-18T10:15:51.922Z,1011.83
2018-09-18T10:16:51.872Z,1011.82
2018-09-18T10:18:44.687Z,1011.78
2018-09-18T10:19:44.616Z,1011.77
2018-09-18T10:21:37.411Z,1011.72
2018-09-18T10:22:37.419Z,1011.74
2018-09-18T10:24:30.176Z,1011.71
2018-09-18T10:25:30.095Z,1011.67
2018-09-18T10:27:22.900Z,1011.62
2018-09-18T10:28:22.811Z,1011.66
2018-09-18T10:30:15.606Z,1011.61
2018-09-18T10:31:15.563Z,1011.61
2018-09-18T10:33:08.389Z,1011.57
2018-09-18T10:34:08.311Z,1011.53
2018-09-18T10:36:01.065Z,1011.52
2018-09-18T10:37:01.009Z,1011.47
2018-09-18T10:38:53.818Z,1011.52
2018-09-18T10:39:53.752Z,1011.51
2018-09-18T10:41:46.570Z,1011.52
2018-09-18T10:42:46.568Z,1011.47
2018-09-18T10:44:39.316Z,1011.46
2018-09-18T10:45:39.319Z,1011.43
2018-09-18T10:47:32.025Z,1011.47
2018-09-18T10:48:31.986Z,1011.41
2018-09-18T10:50:24.773Z,1011.41
2018-09-18T10:51:24.708Z,1011.42
2018-09-18T10:53:17.502Z,1011.35
2018-09-18T10:54:17.426Z,1011.32
2018-09-18T10:56:10.228Z,1011.35
2018-09-18T10:57:10.171Z,1011.31
2018-09-18T10:59:02.960Z,1011.26
2018-09-18T11:00:02.927Z,1011.23
2018-09-18T11:01:55.766Z,1011.20
2018-09-18T11:02:55.617Z,1011.18
2018-09-18T11:04:48.410Z,1011.16
2018-09-18T11:05:48.376Z,1011.16
2018-09-18T11:07:41.307Z,1011.11
2018-09-18T11:08:41.086Z,1011.10
2018-09-18T11:10:33.930Z,1011.09
2018-09-18T11:11:33.827Z,1011.07
2018-09-18T11:13:26.671Z,1011.07
2018-09-18T11:14:26.553Z,1011.00
2018-09-18T11:16:19.324Z,1011.02
2018-09-18T11:17:19.272Z,1011.01
2018-09-18T11:19:11.222Z,1010.93
2018-09-18T11:20:11.172Z,1011.01
2018-09-18T11:22:03.148Z,1010.97
2018-09-18T11:23:02.971Z,1010.96
2018-09-18T11:24:55.813Z,1010.96
2018-09-18T11:25:55.775Z,1010.94
2018-09-18T11:27:48.515Z,1010.92
2018-09-18T11:28:48.447Z,1010.97
2018-09-18T11:30:41.249Z,1010.91
2018-09-18T11:31:41.178Z,1010.88
2018-09-18T11:33:33.974Z,1010.84
2018-09-18T11:34:33.907Z,1010.83
2018-09-18T11:36:26.719Z,1010.82
2018-09-18T11:37:26.638Z,1010.82
2018-09-18T11:39:19.431Z,1010.80
2018-09-18T11:40:19.361Z,1010.76
2018-09-18T11:42:12.145Z,1010.78
2018-09-18T11:43:12.087Z,1010.80
2018-09-18T11:45:04.874Z,1010.80
2018-09-18T11:46:04.912Z,1010.73
2018-09-18T11:47:56.752Z,1010.75
2018-09-18T11:48:56.705Z,1010.70
2018-09-18T11:50:49.498Z,1010.64
2018-09-18T11:51:49.428Z,1010.59
2018-09-18T11:53:42.223Z,1010.69
2018-09-18T11:54:42.165Z,1010.77
2018-09-18T11:56:34.980Z,1010.73
2018-09-18T11:57:34.883Z,1010.66
2018-09-18T11:59:26.759Z,1010.71
2018-09-18T12:00:26.706Z,1010.70
2018-09-18T12:02:19.521Z,1010.62
2018-09-18T12:03:19.448Z,1010.63
2018-09-18T12:05:12.328Z,1010.65
2018-09-18T12:06:12.164Z,1010.60
2018-09-18T12:08:04.977Z,1010.64
2018-09-18T12:09:04.956Z,1010.64
2018-09-18T12:10:57.704Z,1010.60
2018-09-18T12:11:57.651Z,1010.59
2018-09-18T12:13:50.488Z,1010.52
2018-09-18T12:14:50.443Z,1010.48
2018-09-18T12:16:43.211Z,1010.46
2018-09-18T12:17:43.144Z,1010.40
2018-09-18T12:19:35.083Z,1010.41
2018-09-18T12:20:34.989Z,1010.37
2018-09-18T12:22:27.946Z,1010.44
2018-09-18T12:23:27.729Z,1010.34
2018-09-18T12:25:20.515Z,1010.35
2018-09-18T12:26:20.448Z,1010.32
2018-09-18T12:28:13.223Z,1010.27
2018-09-18T12:29:13.168Z,1010.35
2018-09-18T12:31:05.964Z,1010.29
2018-09-18T12:32:05.887Z,1010.23
2018-09-18T12:33:58.664Z,1010.24
2018-09-18T12:34:58.606Z,1010.23
2018-09-18T12:36:50.526Z,1010.25
2018-09-18T12:37:50.414Z,1010.19
2018-09-18T12:39:43.192Z,1010.26
2018-09-18T12:40:43.125Z,1010.21
2018-09-18T12:42:35.038Z,1010.18
2018-09-18T12:43:34.909Z,1010.14
2018-09-18T12:45:27.681Z,1010.14
2018-09-18T12:46:27.602Z,1010.16
2018-09-18T12:48:19.481Z,1010.17
2018-09-18T12:49:19.524Z,1010.15
2018-09-18T12:51:12.222Z,1010.10
2018-09-18T12:52:12.156Z,1010.10
2018-09-18T12:54:04.938Z,1010.04
2018-09-18T12:55:04.872Z,1009.96
2018-09-18T12:56:57.789Z,1010.07
2018-09-18T12:57:57.596Z,1010.03
2018-09-18T12:59:50.555Z,1010.01
2018-09-18T13:00:50.384Z,1009.94
2018-09-18T13:02:43.172Z,1009.94
2018-09-18T13:03:43.096Z,1010.00
2018-09-18T13:05:35.901Z,1009.96
2018-09-18T13:06:35.852Z,1009.95
2018-09-18T13:08:28.591Z,1009.86
2018-09-18T13:09:28.538Z,1009.90
2018-09-18T13:11:21.344Z,1009.85
2018-09-18T13:12:21.305Z,1009.83
2018-09-18T13:14:14.242Z,1009.82
2018-09-18T13:15:14.037Z,1009.78
2018-09-18T13:17:05.781Z,1009.73
2018-09-18T13:18:05.719Z,1009.70
2018-09-18T13:19:58.565Z,1009.70
2018-09-18T13:20:58.426Z,1009.71
2018-09-18T13:22:51.249Z,1009.70
2018-09-18T13:23:51.151Z,1009.65
2018-09-18T13:25:43.954Z,1009.67
2018-09-18T13:26:43.875Z,1009.63
2018-09-18T13:28:36.662Z,1009.59
2018-09-18T13:29:36.595Z,1009.63
2018-09-18T13:31:29.396Z,1009.62
2018-09-18T13:32:29.315Z,1009.60
2018-09-18T13:34:22.120Z,1009.59
2018-09-18T13:35:22.044Z,1009.60
2018-09-18T13:37:14.874Z,1009.55
2018-09-18T13:38:14.763Z,1009.58
2018-09-18T13:40:07.536Z,1009.55
2018-09-18T13:41:07.503Z,1009.53
2018-09-18T13:43:00.289Z,1009.51
2018-09-18T13:44:00.224Z,1009.52
2018-09-18T13:45:53.016Z,1009.52
2018-09-18T13:46:52.945Z,1009.47
2018-09-18T13:48:45.747Z,1009.46
2018-09-18T13:49:45.672Z,1009.45
2018-09-18T13:51:38.476Z,1009.40
2018-09-18T13:52:38.411Z,1009.46
2018-09-18T13:54:31.190Z,1009.44
2018-09-18T13:55:31.187Z,1009.41
2018-09-18T13:57:23.990Z,1009.48
2018-09-18T13:58:23.861Z,1009.39
2018-09-18T14:00:16.654Z,1009.38
2018-09-18T14:01:16.655Z,1009.36
2018-09-18T14:03:09.380Z,1009.38
2018-09-18T14:04:09.355Z,1009.37
2018-09-18T14:06:02.157Z,1009.37
2018-09-18T14:07:02.037Z,1009.33
2018-09-18T14:08:54.910Z,1009.34
2018-09-18T14:09:54.918Z,1009.32
2018-09-18T14:11:47.616Z,1009.34
2018-09-18T14:12:47.521Z,1009.30
2018-09-18T14:14:40.364Z,1009.36
2018-09-18T14:15:40.307Z,1009.34
2018-09-18T14:17:33.285Z,1009.30
2018-09-18T14:18:33.144Z,1009.30
2018-09-18T14:20:25.950Z,1009.32
2018-09-18T14:21:25.842Z,1009.32
2018-09-18T14:23:18.628Z,1009.30
2018-09-18T14:24:18.559Z,1009.32
2018-09-18T14:26:10.402Z,1009.31
2018-09-18T14:27:10.283Z,1009.28
2018-09-18T14:29:03.098Z,1009.26
2018-09-18T14:30:03.040Z,1009.21
2018-09-18T14:31:55.830Z,1009.25
2018-09-18T14:32:55.755Z,1009.25
2018-09-18T14:34:48.574Z,1009.20
2018-09-18T14:35:48.486Z,1009.22
2018-09-18T14:37:41.269Z,1009.16
2018-09-18T14:38:41.197Z,1009.16
2018-09-18T14:40:33.997Z,1009.16
2018-09-18T14:41:33.915Z,1009.17
2018-09-18T14:43:26.716Z,1009.14
2018-09-18T14:44:26.650Z,1009.16
2018-09-18T14:46:19.450Z,1009.17
2018-09-18T14:47:19.382Z,1009.13
2018-09-18T14:49:12.151Z,1009.14
2018-09-18T14:50:12.107Z,1009.08
2018-09-18T14:52:04.892Z,1009.11
2018-09-18T14:53:04.819Z,1009.17
2018-09-18T14:54:57.608Z,1009.12
2018-09-18T14:55:57.553Z,1009.11
2018-09-18T14:57:50.337Z,1009.10
2018-09-18T14:58:50.270Z,1009.06
2018-09-18T15:00:43.056Z,1009.09
2018-09-18T15:01:42.996Z,1009.10
2018-09-18T15:03:35.796Z,1009.07
2018-09-18T15:04:35.720Z,1009.06
2018-09-18T15:06:28.494Z,1009.10
2018-09-18T15:07:28.431Z,1009.09
2018-09-18T15:09:21.252Z,1009.06
2018-09-18T15:10:21.163Z,1009.06
2018-09-18T15:12:13.952Z,1009.04
2018-09-18T15:13:13.884Z,1008.98
2018-09-18T15:15:06.654Z,1009.02
2018-09-18T15:16:06.598Z,1009.05
2018-09-18T15:17:59.405Z,1009.00
2018-09-18T15:18:59.322Z,1009.03
2018-09-18T15:20:51.165Z,1009.02
2018-09-18T15:21:51.164Z,1009.00
2018-09-18T15:23:43.898Z,1008.96
2018-09-18T15:24:43.825Z,1008.96
2018-09-18T15:26:36.614Z,1008.93
2018-09-18T15:27:36.558Z,1008.98
2018-09-18T15:29:29.333Z,1009.00
2018-09-18T15:30:29.271Z,1008.97
2018-09-18T15:32:22.071Z,1008.95
2018-09-18T15:33:22.023Z,1008.95
2018-09-18T15:35:14.774Z,1008.97
2018-09-18T15:36:14.718Z,1008.98
2018-09-18T15:38:07.506Z,1008.96
2018-09-18T15:39:07.429Z,1008.94
2018-09-18T15:41:00.215Z,1009.00
2018-09-18T15:42:00.150Z,1009.01
2018-09-18T15:43:52.925Z,1009.06
2018-09-18T15:44:52.858Z,1009.02
2018-09-18T15:46:45.671Z,1009.01
2018-09-18T15:47:45.579Z,1009.01
2018-09-18T15:49:38.380Z,1008.99
2018-09-18T15:50:38.308Z,1009.01
2018-09-18T15:52:31.653Z,1009.00
2018-09-18T15:53:31.066Z,1008.95
2018-09-18T15:55:23.906Z,1008.97
2018-09-18T15:56:23.777Z,1008.94
2018-09-18T15:58:16.562Z,1008.95
2018-09-18T15:59:16.494Z,1008.93
2018-09-18T16:01:09.328Z,1008.93
2018-09-18T16:02:09.236Z,1008.92
2018-09-18T16:04:02.034Z,1008.93
2018-09-18T16:05:01.963Z,1008.95
2018-09-18T16:06:54.734Z,1008.95
2018-09-18T16:07:54.676Z,1008.92
2018-09-18T16:09:47.536Z,1008.93
2018-09-18T16:10:47.404Z,1008.93
2018-09-18T16:12:40.183Z,1008.96
2018-09-18T16:13:40.136Z,1008.94
2018-09-18T16:16:32.856Z,1008.92
2018-09-18T16:18:25.645Z,1008.94
2018-09-18T16:19:25.577Z,1008.92
2018-09-18T16:21:18.369Z,1008.90
2018-09-18T16:22:18.313Z,1008.92
2018-09-18T16:24:11.127Z,1008.90
2018-09-18T16:25:11.023Z,1008.92
2018-09-18T16:27:03.803Z,1008.90
2018-09-18T16:28:03.746Z,1008.89
2018-09-18T16:29:56.545Z,1008.87
2018-09-18T16:30:56.547Z,1008.85
2018-09-18T16:32:49.272Z,1008.84
2018-09-18T16:33:49.191Z,1008.83
2018-09-18T16:35:41.972Z,1008.81
2018-09-18T16:36:41.919Z,1008.81
2018-09-18T16:38:34.726Z,1008.86
2018-09-18T16:39:35.131Z,1008.81
2018-09-18T16:41:27.431Z,1008.80
2018-09-18T16:42:27.387Z,1008.85
2018-09-18T16:44:19.329Z,1008.80
2018-09-18T16:45:19.265Z,1008.85
2018-09-18T16:47:12.044Z,1008.82
2018-09-18T16:48:11.990Z,1008.87
2018-09-18T16:50:04.788Z,1008.87
2018-09-18T16:51:04.704Z,1008.86
2018-09-18T16:52:57.515Z,1008.85
2018-09-18T16:53:57.450Z,1008.91
2018-09-18T16:55:50.229Z,1008.91
2018-09-18T16:56:50.166Z,1008.91
2018-09-18T16:58:42.202Z,1008.92
2018-09-18T16:59:41.992Z,1008.93
2018-09-18T17:01:34.821Z,1008.94
2018-09-18T17:02:34.776Z,1008.94
2018-09-18T17:04:27.519Z,1008.93
2018-09-18T17:05:27.427Z,1008.93
2018-09-18T17:07:20.190Z,1008.94
2018-09-18T17:08:20.140Z,1008.94
2018-09-18T17:10:12.936Z,1008.95
2018-09-18T17:11:12.864Z,1008.97
2018-09-18T17:13:05.687Z,1008.96
2018-09-18T17:14:05.595Z,1008.99
2018-09-18T17:15:57.530Z,1009.03
2018-09-18T17:16:57.439Z,1009.00
2018-09-18T17:18:50.213Z,1009.00
2018-09-18T17:19:50.144Z,1009.01
2018-09-18T17:21:42.923Z,1009.01
2018-09-18T17:22:42.860Z,1009.03
2018-09-18T17:24:35.743Z,1009.00
2018-09-18T17:25:35.569Z,1009.00